TAF Text Data
IDs:
Format:
Raw Decoded Include METAR

Data at: 0933 UTC 20 Sep 2019

KMRB 200525Z 2006/2106 00000KT P6SM SKC
  FM202000 18004KT P6SM SKC
  FM210500 00000KT P6SM SKC